Time;durP1;ratioP1;P1;durP2;ratioP2;P2;SDS_P1;SDS_P2;PMS_P1;PMS_P2;Temp;Humidity;BMP_temperature;BMP_pressure;BME280_temperature;BME280_humidity;BME280_pressure;Samples;Min_cycle;Max_cycle;Signal;HPM_P1;HPM_P2
2024/01/09 00:02:06;;;;;;;5.37;2.87;;;;;;;18.06;40.53;97059.97;10381354;28;20046;-31
2024/01/09 00:07:06;;;;;;;4.38;2.60;;;;;;;18.06;40.43;97065.03;10384143;28;20814;-31
2024/01/09 00:12:07;;;;;;;3.20;2.40;;;;;;;18.03;40.75;97070.09;10384092;28;20041;-32
2024/01/09 00:17:08;;;;;;;3.08;2.70;;;;;;;17.97;39.85;97055.72;10381664;28;20299;-30
2024/01/09 00:22:08;;;;;;;3.90;3.20;;;;;;;18.04;40.21;97065.06;10409319;28;20511;-32
2024/01/09 00:27:09;;;;;;;3.78;2.67;;;;;;;18.04;40.15;97061.66;10406332;28;20072;-31
2024/01/09 00:32:09;;;;;;;2.90;2.20;;;;;;;18.06;40.91;97075.19;10394283;28;20045;-31
2024/01/09 00:37:11;;;;;;;3.20;2.75;;;;;;;18.06;40.04;97065.91;10394926;28;20045;-31
2024/01/09 00:42:11;;;;;;;4.93;2.75;;;;;;;18.05;40.62;97063.34;10405096;28;20037;-30
2024/01/09 00:47:12;;;;;;;4.07;2.97;;;;;;;18.07;40.81;97064.22;10402060;28;20095;-31
2024/01/09 00:52:12;;;;;;;2.70;2.50;;;;;;;18.05;40.31;97068.41;10391058;28;20044;-31
2024/01/09 00:57:13;;;;;;;2.63;2.23;;;;;;;18.04;40.72;97067.59;10409924;28;20300;-32
2024/01/09 01:02:13;;;;;;;3.47;2.22;;;;;;;18.05;41.65;97060.81;10389848;28;20033;-31
2024/01/09 01:07:15;;;;;;;3.87;2.53;;;;;;;18.03;40.93;97065.03;10395909;28;20037;-31
2024/01/09 01:12:15;;;;;;;3.30;2.63;;;;;;;17.99;41.25;97063.31;10403804;28;20041;-31
2024/01/09 01:17:15;;;;;;;3.73;2.77;;;;;;;18.02;41.35;97066.72;10388411;28;20041;-31
2024/01/09 01:22:16;;;;;;;5.10;2.77;;;;;;;18.00;41.28;97075.16;10391744;28;20045;-33
2024/01/09 01:27:16;;;;;;;3.33;2.57;;;;;;;18.01;41.75;97076.84;10407424;28;20033;-31
2024/01/09 01:32:16;;;;;;;2.80;2.33;;;;;;;17.98;41.38;97081.91;10403848;28;20033;-32
2024/01/09 01:37:17;;;;;;;3.63;2.77;;;;;;;17.97;41.69;97081.03;10392935;28;20038;-31
2024/01/09 01:42:17;;;;;;;3.37;2.70;;;;;;;17.98;41.54;97082.72;10392656;28;20026;-31
2024/01/09 01:47:18;;;;;;;4.13;2.88;;;;;;;17.99;41.30;97083.59;10390902;28;20276;-32
2024/01/09 01:52:19;;;;;;;4.50;2.55;;;;;;;17.98;41.72;97090.34;10394350;28;20155;-31
2024/01/09 01:57:19;;;;;;;5.38;2.90;;;;;;;17.98;41.34;97081.91;10392656;28;20047;-30
2024/01/09 02:02:20;;;;;;;3.77;2.73;;;;;;;17.97;40.39;97080.19;10393890;28;20068;-31
2024/01/09 02:07:23;;;;;;;3.15;2.30;;;;;;;17.97;41.23;97090.31;10398193;28;20025;-31
2024/01/09 02:12:24;;;;;;;3.63;2.50;;;;;;;17.98;41.51;97089.50;10382769;28;20056;-31
2024/01/09 02:17:24;;;;;;;2.97;2.67;;;;;;;17.93;41.41;97074.25;10394457;28;20038;-31
2024/01/09 02:22:25;;;;;;;2.65;2.45;;;;;;;17.96;40.98;97079.34;10384340;28;20037;-31
2024/01/09 02:27:58;;;;;;;4.30;2.40;;;;;;;17.96;42.01;97078.47;10386921;28;20516;-31
2024/01/09 02:32:59;;;;;;;3.97;2.90;;;;;;;17.95;41.21;97066.66;10371970;28;20041;-31
2024/01/09 02:38:00;;;;;;;4.40;2.95;;;;;;;17.88;42.17;97054.78;10385635;28;20394;-31
2024/01/09 02:43:00;;;;;;;4.15;3.20;;;;;;;17.95;41.74;97064.13;10382844;28;20038;-31
2024/01/09 02:48:00;;;;;;;5.00;2.63;;;;;;;17.96;40.63;97071.75;10388356;28;20553;-32
2024/01/09 02:53:01;;;;;;;2.60;2.40;;;;;;;17.95;40.40;97070.06;10382996;28;20046;-32
2024/01/09 02:58:01;;;;;;;4.63;2.57;;;;;;;17.96;40.82;97063.28;10383138;28;20418;-30
2024/01/09 03:03:01;;;;;;;3.57;2.87;;;;;;;17.95;41.95;97056.53;10385294;28;20402;-31
2024/01/09 03:08:02;;;;;;;3.53;2.80;;;;;;;17.97;41.30;97064.97;10386648;28;20034;-31
2024/01/09 03:13:02;;;;;;;3.17;2.42;;;;;;;17.96;41.03;97064.16;10390713;28;20438;-31
2024/01/09 03:18:03;;;;;;;3.10;2.42;;;;;;;17.95;41.38;97062.47;10384065;28;20434;-32
2024/01/09 03:23:03;;;;;;;4.22;2.83;;;;;;;17.92;40.68;97062.41;10383530;28;20041;-31
2024/01/09 03:28:04;;;;;;;4.30;3.00;;;;;;;17.92;40.74;97067.47;10385992;28;20034;-31
2024/01/09 03:33:04;;;;;;;3.85;3.20;;;;;;;17.93;39.03;97069.16;10385087;28;20129;-30
2024/01/09 03:38:07;;;;;;;3.60;2.87;;;;;;;17.94;41.31;97064.97;10385611;28;20040;-32
2024/01/09 03:43:07;;;;;;;4.18;2.67;;;;;;;17.93;41.09;97060.75;10388073;28;20033;-31
2024/01/09 03:48:08;;;;;;;3.00;2.70;;;;;;;17.92;40.47;97064.94;10386026;28;20586;-32
2024/01/09 03:53:08;;;;;;;3.80;2.90;;;;;;;17.91;41.13;97060.72;10386961;28;20049;-31
2024/01/09 03:58:11;;;;;;;3.23;2.93;;;;;;;17.91;40.24;97060.72;10384818;28;20350;-31
2024/01/09 04:03:11;;;;;;;3.90;2.78;;;;;;;17.91;41.07;97059.88;10394836;28;20112;-30
2024/01/09 04:08:14;;;;;;;3.63;2.60;;;;;;;17.90;41.16;97058.19;10387751;28;20479;-31
2024/01/09 04:13:14;;;;;;;4.03;3.28;;;;;;;17.93;41.62;97068.34;10392326;28;20306;-30
2024/01/09 04:18:14;;;;;;;3.43;2.97;;;;;;;17.93;41.52;97063.28;10392939;28;20042;-31
2024/01/09 04:23:15;;;;;;;4.73;3.13;;;;;;;17.92;40.60;97062.41;10388774;28;20045;-31
2024/01/09 04:28:15;;;;;;;4.93;3.00;;;;;;;17.92;40.95;97064.13;10404558;28;20029;-31
2024/01/09 04:33:18;;;;;;;4.13;3.23;;;;;;;17.92;40.96;97061.59;10395472;28;20037;-31
2024/01/09 04:38:18;;;;;;;3.90;3.50;;;;;;;17.92;41.41;97066.66;10384638;28;20029;-32
2024/01/09 04:43:18;;;;;;;3.93;3.23;;;;;;;17.92;41.52;97067.47;10386622;28;20045;-31
2024/01/09 04:48:19;;;;;;;4.00;3.10;;;;;;;17.89;39.35;97066.59;10396504;28;20303;-32
2024/01/09 04:53:19;;;;;;;3.40;3.00;;;;;;;17.91;40.12;97060.72;10393178;28;20037;-30
2024/01/09 04:58:19;;;;;;;4.50;3.73;;;;;;;17.95;40.69;97056.53;10384811;28;20464;-31
2024/01/09 05:03:20;;;;;;;4.43;3.00;;;;;;;17.98;38.08;97066.69;10389744;28;20547;-31
2024/01/09 05:08:20;;;;;;;4.73;3.50;;;;;;;17.99;37.44;97060.78;10398566;28;20495;-31
2024/01/09 05:13:21;;;;;;;4.33;3.93;;;;;;;17.99;38.04;97059.09;10396387;28;20558;-31
2024/01/09 05:18:21;;;;;;;4.40;3.10;;;;;;;18.03;37.70;97065.91;10395074;28;20498;-33
2024/01/09 05:23:21;;;;;;;5.40;4.20;;;;;;;18.01;36.96;97072.63;10354262;28;20306;-30
2024/01/09 05:28:22;;;;;;;4.28;3.75;;;;;;;17.90;35.23;97063.25;10336685;28;20041;-32
2024/01/09 05:33:22;;;;;;;4.93;3.72;;;;;;;17.92;34.96;97071.72;10388567;28;20386;-31
2024/01/09 05:38:25;;;;;;;6.03;4.13;;;;;;;17.93;36.15;97076.78;10392849;28;20040;-31
2024/01/09 05:43:25;;;;;;;4.68;3.95;;;;;;;17.88;33.30;97065.78;10393360;28;20048;-30
2024/01/09 05:48:26;;;;;;;4.50;3.77;;;;;;;17.96;36.35;97083.56;10393117;28;20523;-30
2024/01/09 05:53:26;;;;;;;5.13;4.33;;;;;;;17.90;35.33;97084.34;10397291;28;20053;-30
2024/01/09 05:58:26;;;;;;;6.47;5.10;;;;;;;18.03;36.61;97081.09;10394450;28;20049;-31
2024/01/09 06:03:27;;;;;;;9.10;4.37;;;;;;;18.14;37.00;97081.16;10398596;28;20300;-30
2024/01/09 06:08:27;;;;;;;5.35;4.05;;;;;;;18.20;37.68;97083.72;10394909;28;20046;-31
2024/01/09 06:13:28;;;;;;;4.27;3.87;;;;;;;18.18;39.34;97083.72;10398921;28;20080;-30
2024/01/09 06:18:28;;;;;;;5.33;3.90;;;;;;;18.18;39.04;97093.84;10396490;28;20044;-30
2024/01/09 06:23:28;;;;;;;10.80;3.97;;;;;;;18.15;38.35;97073.56;10393055;28;20136;-31
2024/01/09 06:28:29;;;;;;;8.47;7.00;;;;;;;17.75;35.03;97085.94;10393981;28;20060;-31
2024/01/09 06:33:29;;;;;;;7.63;5.70;;;;;;;17.90;36.86;97079.28;10393425;28;20584;-31
2024/01/09 06:38:29;;;;;;;13.50;5.60;;;;;;;17.79;36.47;97085.09;10391166;28;20052;-30
2024/01/09 06:43:30;;;;;;;5.40;4.50;;;;;;;17.89;35.96;97086.88;10394596;28;20094;-31
2024/01/09 06:48:30;;;;;;;9.83;5.07;;;;;;;17.94;35.66;97088.63;10397301;28;20033;-30
2024/01/09 06:53:30;;;;;;;7.38;5.22;;;;;;;17.96;36.64;97094.53;10393019;28;20170;-31
2024/01/09 06:58:31;;;;;;;11.20;5.60;;;;;;;17.93;37.44;97089.44;10394192;28;20041;-31
2024/01/09 07:03:31;;;;;;;6.37;5.03;;;;;;;17.93;36.41;97099.56;10395702;28;20053;-32
2024/01/09 07:08:32;;;;;;;7.53;5.60;;;;;;;17.90;36.63;97098.72;10395582;28;20034;-31
2024/01/09 07:13:32;;;;;;;6.97;6.05;;;;;;;17.78;37.28;97093.53;10397165;28;20707;-30
2024/01/09 07:18:33;;;;;;;6.07;5.30;;;;;;;17.88;37.43;97110.50;10395073;28;20029;-30
2024/01/09 07:23:33;;;;;;;6.10;5.13;;;;;;;17.88;37.75;97111.38;10390932;28;20037;-31
2024/01/09 07:28:33;;;;;;;6.80;5.10;;;;;;;17.90;36.46;97119.00;10397070;28;20288;-32
2024/01/09 07:33:34;;;;;;;6.30;5.43;;;;;;;17.93;35.51;97121.53;10392394;28;20735;-31
2024/01/09 07:38:34;;;;;;;7.35;5.50;;;;;;;17.92;35.77;97125.75;10388229;28;20084;-30
2024/01/09 07:43:34;;;;;;;7.70;5.23;;;;;;;17.94;34.97;97131.69;10393453;28;20041;-30
2024/01/09 07:48:35;;;;;;;6.20;5.60;;;;;;;17.97;35.24;97130.84;10393359;28;20029;-31
2024/01/09 07:53:35;;;;;;;5.67;5.07;;;;;;;17.97;35.02;97131.72;10395162;28;20303;-31
2024/01/09 07:58:35;;;;;;;7.17;5.57;;;;;;;17.96;35.93;97145.22;10393245;28;20030;-30
2024/01/09 08:03:36;;;;;;;5.77;5.10;;;;;;;17.97;35.29;97138.44;10388391;28;20038;-30
2024/01/09 08:08:38;;;;;;;6.10;5.43;;;;;;;17.97;35.29;97138.44;10396118;28;20311;-32
2024/01/09 08:13:40;;;;;;;5.63;5.03;;;;;;;17.93;34.72;97134.19;10397742;28;20037;-31
2024/01/09 08:18:40;;;;;;;6.03;5.10;;;;;;;17.95;35.33;97147.72;10396050;28;20120;-31
2024/01/09 08:23:40;;;;;;;6.33;5.47;;;;;;;17.93;34.66;97145.16;10388200;28;20047;-34
2024/01/09 08:28:41;;;;;;;6.50;5.30;;;;;;;17.93;35.08;97151.94;10395834;28;20038;-31
2024/01/09 08:33:41;;;;;;;5.77;4.90;;;;;;;17.91;34.87;97148.53;10393329;28;20038;-31
2024/01/09 08:38:41;;;;;;;6.27;5.20;;;;;;;17.91;35.21;97146.84;10389400;28;20077;-30
2024/01/09 08:43:42;;;;;;;5.00;4.40;;;;;;;17.87;34.65;97136.66;10401090;28;20036;-30
2024/01/09 08:48:42;;;;;;;5.63;5.03;;;;;;;17.90;34.21;97155.28;10397143;28;20033;-30
2024/01/09 08:53:42;;;;;;;6.50;5.50;;;;;;;17.91;35.18;97148.53;10402119;28;20036;-30
2024/01/09 08:58:43;;;;;;;5.77;4.83;;;;;;;17.90;34.66;97145.16;10400054;28;20034;-31
2024/01/09 09:03:43;;;;;;;6.27;5.53;;;;;;;17.90;34.13;97155.28;10395052;28;20057;-31
2024/01/09 09:08:44;;;;;;;5.80;5.20;;;;;;;17.90;34.75;97152.75;10404035;28;20025;-30
2024/01/09 09:13:44;;;;;;;7.45;5.93;;;;;;;17.91;34.19;97153.63;10395978;28;20288;-30
2024/01/09 09:18:45;;;;;;;5.87;5.20;;;;;;;17.88;34.66;97151.03;10400846;28;20122;-32
2024/01/09 09:23:45;;;;;;;7.03;5.77;;;;;;;17.92;34.09;97162.91;10394511;28;20025;-31
2024/01/09 09:28:47;;;;;;;5.87;5.27;;;;;;;17.94;34.65;97161.22;10400077;28;20025;-31
2024/01/09 09:33:47;;;;;;;6.32;5.28;;;;;;;17.98;34.95;97162.97;10396037;28;20116;-32
2024/01/09 09:38:48;;;;;;;6.60;5.77;;;;;;;18.01;34.69;97163.00;10393963;28;20043;-31
2024/01/09 09:43:56;;;;;;;6.07;4.83;;;;;;;18.02;34.64;97160.47;10398982;28;20033;-31
2024/01/09 09:48:56;;;;;;;5.60;5.03;;;;;;;18.00;34.51;97163.81;10389932;28;20294;-31
2024/01/09 09:53:57;;;;;;;6.10;5.50;;;;;;;17.98;34.58;97162.97;10397165;28;20041;-30
2024/01/09 09:58:58;;;;;;;5.93;5.13;;;;;;;17.95;34.64;97157.84;10395947;28;20083;-30
2024/01/09 10:04:27;;;;;;;7.27;5.60;;;;;;;17.93;35.02;97159.53;10398423;28;20383;-31
2024/01/09 10:09:34;;;;;;;6.10;5.15;;;;;;;17.88;34.67;97156.97;10401408;28;20493;-30
2024/01/09 10:14:35;;;;;;;9.23;5.10;;;;;;;17.90;34.20;97159.50;10401393;28;20119;-31
2024/01/09 10:19:37;;;;;;;6.63;5.37;;;;;;;17.89;34.81;97155.25;10399033;28;20072;-31
2024/01/09 10:24:40;;;;;;;5.85;4.70;;;;;;;17.87;34.16;97156.94;10389159;28;20083;-30
2024/01/09 10:29:44;;;;;;;6.38;4.78;;;;;;;17.89;34.07;97158.66;10367911;28;20113;-31
2024/01/09 10:34:44;;;;;;;6.05;5.07;;;;;;;17.92;33.94;97157.84;10398769;28;20033;-31
2024/01/09 10:39:50;;;;;;;5.03;4.53;;;;;;;17.90;34.56;97150.22;10402627;28;20658;-31
2024/01/09 10:44:50;;;;;;;7.50;5.78;;;;;;;17.98;34.82;97158.72;10381804;28;20034;-32
2024/01/09 10:49:52;;;;;;;6.37;5.77;;;;;;;17.95;34.99;97143.53;10381727;28;20037;-31
2024/01/09 10:54:54;;;;;;;6.13;4.68;;;;;;;17.99;34.88;97149.47;10390491;28;20720;-31
2024/01/09 10:59:57;;;;;;;5.32;4.38;;;;;;;18.03;34.67;97146.09;10391265;28;20553;-31
2024/01/09 11:04:57;;;;;;;5.60;4.97;;;;;;;18.02;34.88;97142.75;10395926;28;20037;-32
2024/01/09 11:10:00;;;;;;;5.27;4.77;;;;;;;18.02;35.04;97136.81;10370809;28;20025;-31
2024/01/09 11:15:21;;;;;;;5.72;4.75;;;;;;;18.02;34.34;97142.75;10390462;28;20296;-31
2024/01/09 11:20:22;;;;;;;5.88;4.47;;;;;;;17.99;34.86;97134.25;10400903;28;20480;-30
2024/01/09 11:25:24;;;;;;;5.70;4.90;;;;;;;17.99;35.94;97139.34;10402405;28;20103;-30
2024/01/09 11:30:29;;;;;;;6.40;4.72;;;;;;;17.96;35.00;97129.16;10394012;28;20154;-31
2024/01/09 11:35:29;;;;;;;5.75;4.28;;;;;;;17.96;35.55;97146.88;10382985;28;20046;-31
2024/01/09 11:40:31;;;;;;;6.13;4.17;;;;;;;17.96;35.59;97147.75;10387993;28;20033;-31
2024/01/09 11:45:32;;;;;;;4.88;3.80;;;;;;;17.77;39.53;97148.41;10380391;28;20473;-32
2024/01/09 11:50:33;;;;;;;2.70;2.33;;;;;;;17.71;44.18;97142.44;10373174;28;20025;-31
2024/01/09 11:55:33;;;;;;;5.00;3.60;;;;;;;17.72;43.07;97144.13;10390555;28;20030;-31
2024/01/09 12:00:34;;;;;;;5.50;4.00;;;;;;;17.71;42.25;97144.97;10388843;28;20045;-31
2024/01/09 12:05:35;;;;;;;4.45;3.97;;;;;;;17.71;41.98;97140.75;10385965;28;20763;-32
2024/01/09 12:10:43;;;;;;;4.40;4.00;;;;;;;17.72;41.26;97142.44;10390017;28;20060;-31
2024/01/09 12:15:43;;;;;;;5.82;4.55;;;;;;;17.69;41.43;97139.03;10380837;28;20427;-30
2024/01/09 12:20:44;;;;;;;5.07;4.30;;;;;;;17.66;41.12;97141.56;10388925;28;20060;-31
2024/01/09 12:25:48;;;;;;;5.72;4.40;;;;;;;17.70;39.26;97146.66;10395557;28;20344;-30
2024/01/09 12:30:48;;;;;;;6.20;4.18;;;;;;;17.67;42.18;97145.78;10374482;28;20579;-31
2024/01/09 12:35:49;;;;;;;5.17;3.90;;;;;;;17.68;42.87;97142.41;10399355;28;20120;-31
2024/01/09 12:41:07;;;;;;;4.82;3.45;;;;;;;17.64;42.51;97136.47;10379539;28;20040;-30
2024/01/09 12:46:07;;;;;;;6.53;4.45;;;;;;;17.69;43.75;97144.09;10377741;28;20031;-31
2024/01/09 12:51:08;;;;;;;12.00;5.50;;;;;;;17.67;43.27;97140.72;10387380;28;20044;-31
2024/01/09 12:56:13;;;;;;;9.23;5.10;;;;;;;17.75;44.08;97144.16;10374545;28;20033;-32
2024/01/09 13:01:15;;;;;;;11.57;4.68;;;;;;;17.73;43.58;97148.38;10381682;28;20037;-31
2024/01/09 13:06:15;;;;;;;12.65;5.35;;;;;;;17.68;42.70;97139.88;10383818;28;20057;-31
2024/01/09 13:11:15;;;;;;;10.60;5.43;;;;;;;17.73;42.77;97144.16;10390701;28;20060;-30
2024/01/09 13:16:16;;;;;;;7.97;5.13;;;;;;;17.75;42.04;97145.00;10377224;28;20041;-32
2024/01/09 13:21:17;;;;;;;9.23;5.23;;;;;;;17.76;40.93;97143.34;10380124;28;20100;-31
2024/01/09 13:26:18;;;;;;;6.20;4.72;;;;;;;17.82;42.19;97135.81;10388740;28;20044;-31
2024/01/09 13:31:21;;;;;;;5.95;4.45;;;;;;;17.84;41.91;97144.25;10392842;28;20124;-30
2024/01/09 13:36:21;;;;;;;9.07;5.07;;;;;;;17.79;40.72;97135.75;10378580;28;20054;-31
2024/01/09 13:41:21;;;;;;;7.83;4.70;;;;;;;17.82;42.25;97139.16;10368470;28;20033;-31
2024/01/09 13:46:22;;;;;;;6.53;4.80;;;;;;;17.83;42.30;97147.63;10366382;28;20315;-30
2024/01/09 13:51:23;;;;;;;5.97;5.00;;;;;;;17.90;40.61;97149.38;10368100;28;20033;-31
2024/01/09 13:56:26;;;;;;;6.53;4.40;;;;;;;17.87;42.69;97151.88;10368257;28;20026;-32
2024/01/09 14:01:28;;;;;;;6.55;4.38;;;;;;;17.80;44.38;97148.44;10368307;28;20092;-30
2024/01/09 14:06:30;;;;;;;6.85;3.97;;;;;;;17.74;44.72;97152.59;10367845;28;20044;-30
2024/01/09 14:11:30;;;;;;;7.03;4.78;;;;;;;17.75;42.11;97154.31;10366769;28;20115;-31
2024/01/09 14:16:30;;;;;;;5.57;4.17;;;;;;;17.81;43.35;97159.41;10368213;28;20064;-31
2024/01/09 14:21:32;;;;;;;8.98;5.03;;;;;;;17.82;41.52;97161.13;10366467;28;20034;-30
2024/01/09 14:26:32;;;;;;;5.85;5.00;;;;;;;17.83;41.33;97167.88;10366359;28;20112;-31
2024/01/09 14:31:33;;;;;;;6.40;4.20;;;;;;;17.82;41.53;97171.25;10367283;28;20036;-31
2024/01/09 14:36:34;;;;;;;5.60;4.72;;;;;;;17.82;41.54;97171.25;10366296;28;20037;-30
2024/01/09 14:41:34;;;;;;;6.57;4.60;;;;;;;17.80;40.77;97167.84;10365888;28;20091;-31
2024/01/09 14:46:35;;;;;;;7.10;5.10;;;;;;;17.79;41.52;97166.16;10365027;28;20064;-31
2024/01/09 14:51:36;;;;;;;5.20;4.50;;;;;;;17.80;40.47;97163.63;10365839;28;20034;-31
2024/01/09 14:56:37;;;;;;;5.72;4.68;;;;;;;17.74;40.83;97152.59;10365644;28;20304;-31
2024/01/09 15:01:37;;;;;;;5.82;4.70;;;;;;;17.76;39.56;97166.13;10365577;28;20042;-31
2024/01/09 15:06:41;;;;;;;6.43;4.90;;;;;;;17.77;39.99;97162.75;10366067;28;20113;-30
2024/01/09 15:11:41;;;;;;;6.95;5.38;;;;;;;17.80;38.64;97171.22;10364282;28;20332;-31
2024/01/09 15:16:42;;;;;;;6.13;5.47;;;;;;;17.85;38.89;97171.28;10365596;28;20127;-32
2024/01/09 15:21:42;;;;;;;6.87;5.13;;;;;;;17.86;38.59;97167.91;10364527;28;20033;-31
2024/01/09 15:26:42;;;;;;;8.80;5.50;;;;;;;17.88;38.11;97174.69;10364316;28;20117;-30
2024/01/09 15:31:43;;;;;;;5.67;4.90;;;;;;;17.81;38.66;97170.41;10364992;28;20034;-30
2024/01/09 15:36:43;;;;;;;6.50;5.37;;;;;;;17.92;39.62;97193.31;10364257;28;20564;-32
2024/01/09 15:41:44;;;;;;;6.03;4.60;;;;;;;17.88;39.31;97183.97;10363763;28;20343;-30
2024/01/09 15:46:44;;;;;;;6.25;4.90;;;;;;;17.90;39.10;97185.69;10364749;28;20288;-30
2024/01/09 15:51:45;;;;;;;7.23;5.50;;;;;;;17.91;39.26;97189.91;10362837;28;20030;-31
2024/01/09 15:56:45;;;;;;;8.17;5.70;;;;;;;17.97;37.81;97197.56;10358008;28;20030;-30
2024/01/09 16:01:45;;;;;;;9.63;5.97;;;;;;;17.98;38.42;97203.50;10362177;28;20501;-31
2024/01/09 16:06:46;;;;;;;8.00;5.10;;;;;;;17.93;38.56;97195.81;10361306;28;20038;-32
2024/01/09 16:11:47;;;;;;;8.30;5.50;;;;;;;17.93;38.37;97200.06;10362454;28;20033;-32
2024/01/09 16:16:51;;;;;;;12.10;7.03;;;;;;;17.96;34.98;97197.56;10361884;28;20867;-31
2024/01/09 16:21:51;;;;;;;12.48;8.15;;;;;;;17.79;31.70;97201.59;10359244;28;20811;-31
2024/01/09 16:26:51;;;;;;;10.90;7.60;;;;;;;17.89;31.18;97205.91;10362916;28;20026;-31
2024/01/09 16:31:52;;;;;;;8.60;6.43;;;;;;;17.96;34.23;97206.00;10356094;28;20038;-32
2024/01/09 16:36:53;;;;;;;10.98;6.88;;;;;;;18.00;36.59;97206.91;10359486;28;20033;-31
2024/01/09 16:41:55;;;;;;;9.13;7.90;;;;;;;18.03;34.75;97217.03;10357914;28;20799;-31
2024/01/09 16:46:55;;;;;;;13.98;9.60;;;;;;;18.07;32.49;97223.84;10356400;28;20048;-30
2024/01/09 16:51:56;;;;;;;14.00;8.15;;;;;;;18.08;34.60;97223.03;10358978;28;20041;-31
2024/01/09 16:56:56;;;;;;;9.63;8.33;;;;;;;18.13;33.29;97234.03;10357910;28;20042;-31
2024/01/09 17:01:57;;;;;;;14.83;8.30;;;;;;;18.06;34.22;97224.66;10362115;28;20280;-31
2024/01/09 17:06:58;;;;;;;12.00;9.18;;;;;;;18.05;33.19;97226.38;10359163;28;20092;-31
2024/01/09 17:11:58;;;;;;;10.67;7.70;;;;;;;18.13;32.58;97229.81;10361115;28;20088;-30
2024/01/09 17:16:58;;;;;;;13.37;9.10;;;;;;;18.10;32.90;97229.81;10366603;28;20675;-30
2024/01/09 17:21:59;;;;;;;12.07;8.23;;;;;;;18.10;34.18;97226.41;10368337;28;20388;-31
2024/01/09 17:26:59;;;;;;;9.52;8.25;;;;;;;18.08;34.84;97235.69;10369307;28;20034;-30
2024/01/09 17:32:00;;;;;;;12.20;9.23;;;;;;;18.08;34.52;97236.53;10367619;28;20256;-32
2024/01/09 17:37:00;;;;;;;11.40;7.87;;;;;;;18.07;35.24;97223.84;10369610;28;20346;-31
2024/01/09 17:42:00;;;;;;;9.57;7.93;;;;;;;18.06;34.79;97238.19;10367855;28;20049;-31
2024/01/09 17:47:01;;;;;;;9.50;7.33;;;;;;;18.06;35.03;97237.34;10367877;28;20038;-31
2024/01/09 17:52:02;;;;;;;9.93;7.37;;;;;;;18.07;34.19;97239.06;10368748;28;20776;-31
2024/01/09 17:57:04;;;;;;;8.77;7.38;;;;;;;18.11;33.16;97230.63;10366986;28;20033;-31
2024/01/09 18:02:04;;;;;;;9.70;7.93;;;;;;;18.10;32.53;97234.88;10368320;28;20560;-31
2024/01/09 18:07:05;;;;;;;10.60;8.45;;;;;;;18.10;33.00;97234.00;10367649;28;20064;-31
2024/01/09 18:12:06;;;;;;;9.95;8.68;;;;;;;18.08;32.07;97244.13;10365900;28;20088;-30
2024/01/09 18:17:07;;;;;;;11.20;9.13;;;;;;;17.98;36.86;97244.03;10366444;28;20133;-31
2024/01/09 18:22:07;;;;;;;11.43;9.68;;;;;;;17.99;36.90;97241.50;10366888;28;20575;-31
2024/01/09 18:27:07;;;;;;;12.30;9.00;;;;;;;18.00;37.51;97242.38;10366328;28;20652;-32
2024/01/09 18:32:08;;;;;;;14.63;9.77;;;;;;;17.98;37.25;97251.63;10366341;28;20041;-32
2024/01/09 18:37:08;;;;;;;11.60;10.40;;;;;;;18.02;37.98;97250.81;10365593;28;20297;-30
2024/01/09 18:42:08;;;;;;;18.13;12.77;;;;;;;18.01;38.96;97261.78;10364780;28;20292;-30
2024/01/09 18:47:09;;;;;;;18.60;13.27;;;;;;;18.00;37.89;97252.50;10356863;28;20092;-31
2024/01/09 18:52:10;;;;;;;13.63;10.00;;;;;;;18.07;33.51;97254.25;10362353;28;20041;-32
2024/01/09 18:57:10;;;;;;;13.27;10.18;;;;;;;18.08;33.20;97255.97;10357802;28;20564;-31
2024/01/09 19:02:11;;;;;;;13.50;9.43;;;;;;;18.09;32.46;97252.59;10365617;28;20044;-31
2024/01/09 19:07:11;;;;;;;11.85;9.48;;;;;;;18.11;32.53;97253.44;10363558;28;20038;-30
2024/01/09 19:12:11;;;;;;;12.15;9.95;;;;;;;18.17;31.91;97250.97;10363772;28;20121;-30
2024/01/09 19:17:12;;;;;;;12.30;10.57;;;;;;;18.18;33.18;97257.75;10361205;28;20053;-31
2024/01/09 19:22:12;;;;;;;14.55;10.57;;;;;;;18.15;34.08;97250.13;10363919;28;20030;-31
2024/01/09 19:27:12;;;;;;;14.80;10.97;;;;;;;18.13;35.42;97246.69;10354833;28;20498;-32
2024/01/09 19:32:13;;;;;;;11.43;10.10;;;;;;;18.09;33.84;97252.59;10348955;28;20038;-33
2024/01/09 19:37:15;;;;;;;14.70;10.20;;;;;;;17.44;31.00;97239.19;10363415;28;20069;-31
2024/01/09 19:42:16;;;;;;;14.63;11.87;;;;;;;17.17;29.61;97245.56;10356553;28;20034;-31
2024/01/09 19:47:16;;;;;;;13.45;10.90;;;;;;;17.49;29.20;97247.69;10351080;28;20026;-31
2024/01/09 19:52:20;;;;;;;16.37;10.83;;;;;;;17.74;29.15;97243.78;10357198;28;20034;-30
2024/01/09 19:57:20;;;;;;;15.73;10.80;;;;;;;17.88;33.08;97253.22;10356256;28;20305;-31
2024/01/09 20:02:20;;;;;;;11.83;9.93;;;;;;;17.95;35.44;97244.84;10358453;28;20044;-32
2024/01/09 20:07:21;;;;;;;12.27;9.30;;;;;;;18.05;34.60;97235.63;10357511;28;20505;-31
2024/01/09 20:12:21;;;;;;;10.43;8.70;;;;;;;18.12;35.40;97247.53;10354634;28;20288;-31
2024/01/09 20:17:22;;;;;;;11.37;9.23;;;;;;;18.16;34.88;97241.69;10357032;28;20747;-30
2024/01/09 20:22:23;;;;;;;12.00;9.00;;;;;;;18.11;35.73;97238.25;10359358;28;20276;-31
2024/01/09 20:27:25;;;;;;;12.15;8.80;;;;;;;18.12;36.24;97239.94;10357348;28;20100;-30
2024/01/09 20:32:25;;;;;;;11.48;8.05;;;;;;;18.10;36.02;97239.06;10355840;28;20165;-31
2024/01/09 20:37:26;;;;;;;12.43;9.33;;;;;;;18.11;36.09;97248.38;10365808;28;20069;-31
2024/01/09 20:42:27;;;;;;;11.37;9.40;;;;;;;18.10;35.61;97244.16;10367629;28;20053;-32
2024/01/09 20:47:30;;;;;;;11.30;9.27;;;;;;;18.08;35.68;97243.28;10367758;28;20065;-31
2024/01/09 20:52:31;;;;;;;11.18;8.90;;;;;;;18.08;36.14;97245.81;10364445;28;20121;-31
2024/01/09 20:57:31;;;;;;;10.88;8.60;;;;;;;18.08;36.05;97245.81;10366058;28;20052;-31
2024/01/09 21:02:32;;;;;;;10.65;8.82;;;;;;;18.06;35.97;97237.34;10366761;28;20037;-31
2024/01/09 21:07:32;;;;;;;10.07;8.40;;;;;;;18.05;36.45;97249.16;10367804;28;20034;-32
2024/01/09 21:12:32;;;;;;;10.73;8.00;;;;;;;17.99;36.48;97258.41;10363658;28;20301;-31
2024/01/09 21:17:33;;;;;;;10.80;9.43;;;;;;;17.96;37.77;97251.63;10366212;28;20493;-31
2024/01/09 21:22:33;;;;;;;11.40;9.27;;;;;;;17.98;36.18;97260.06;10366029;28;20437;-31
2024/01/09 21:27:35;;;;;;;9.37;8.37;;;;;;;17.99;35.76;97263.47;10364950;28;20556;-31
2024/01/09 21:32:35;;;;;;;10.48;8.77;;;;;;;17.98;36.65;97264.31;10358679;28;20445;-31
2024/01/09 21:37:39;;;;;;;9.85;8.40;;;;;;;17.98;35.91;97270.22;10361831;28;20041;-31
2024/01/09 21:42:39;;;;;;;10.88;9.52;;;;;;;18.00;36.13;97267.69;10364760;28;20033;-31
2024/01/09 21:47:40;;;;;;;11.25;9.23;;;;;;;17.98;36.26;97265.13;10364465;28;20030;-30
2024/01/09 21:52:40;;;;;;;9.63;8.50;;;;;;;18.00;39.38;97273.59;10367308;28;20565;-31
2024/01/09 21:57:41;;;;;;;11.07;8.82;;;;;;;18.06;36.86;97262.66;10366626;28;20053;-31
2024/01/09 22:02:41;;;;;;;11.70;9.13;;;;;;;18.09;36.58;97267.78;10366041;28;20405;-31
2024/01/09 22:07:41;;;;;;;11.53;9.07;;;;;;;18.11;37.43;97266.13;10363004;28;20022;-32
2024/01/09 22:12:42;;;;;;;9.77;8.73;;;;;;;18.11;36.87;97266.13;10363861;28;20050;-31
2024/01/09 22:17:42;;;;;;;12.03;9.00;;;;;;;18.10;36.20;97270.34;10361863;28;20425;-32
2024/01/09 22:22:42;;;;;;;11.40;9.07;;;;;;;18.09;36.72;97262.72;10365957;28;20269;-33
2024/01/09 22:27:43;;;;;;;10.37;7.90;;;;;;;18.10;36.47;97262.75;10366325;28;20033;-32
2024/01/09 22:32:43;;;;;;;12.17;8.57;;;;;;;18.08;35.90;97251.72;10367191;28;20030;-32
2024/01/09 22:37:43;;;;;;;9.23;8.20;;;;;;;18.08;36.65;97254.25;10366488;28;20030;-30
2024/01/09 22:42:44;;;;;;;9.90;8.70;;;;;;;18.09;36.59;97242.44;10365243;28;20025;-32
2024/01/09 22:47:44;;;;;;;14.70;9.37;;;;;;;17.99;36.32;97228.84;10367202;28;20088;-31
2024/01/09 22:52:44;;;;;;;12.23;9.43;;;;;;;18.06;36.54;97239.88;10365510;28;20059;-31
2024/01/09 22:57:47;;;;;;;11.40;9.10;;;;;;;18.01;36.38;97223.78;10365627;28;20061;-31
2024/01/09 23:02:49;;;;;;;10.40;7.65;;;;;;;18.02;37.33;97228.03;10365149;28;20115;-31
2024/01/09 23:07:50;;;;;;;10.15;8.45;;;;;;;18.07;36.29;97226.38;10365858;28;20049;-31
2024/01/09 23:12:50;;;;;;;10.47;9.33;;;;;;;18.07;36.44;97219.63;10364576;28;20120;-30